Time;durP1;ratioP1;P1;durP2;ratioP2;P2;SDS_P1;SDS_P2;PMS_P1;PMS_P2;Temp;Humidity;BMP_temperature;BMP_pressure;BME280_temperature;BME280_humidity;BME280_pressure;Samples;Min_cycle;Max_cycle;Signal;HPM_P1;HPM_P2
2024/02/24 00:03:43;;;;;;;0.00;0.00;;;;;;;5.26;64.54;99480.34;15807519;28;20496;-49
2024/02/24 00:11:24;;;;;;;0.15;0.15;;;;;;;4.98;65.52;99477.91;15828017;28;20043;-53
2024/02/24 00:19:00;;;;;;;0.28;0.28;;;;;;;4.67;66.08;99471.38;15821496;28;20569;-47
2024/02/24 00:26:34;;;;;;;0.00;0.00;;;;;;;4.59;66.72;99476.88;15826190;28;20121;-54
2024/02/24 00:34:10;;;;;;;0.30;0.20;;;;;;;4.53;67.35;99475.84;15811656;28;20040;-50
2024/02/24 00:41:44;;;;;;;0.00;0.00;;;;;;;4.42;67.25;99484.38;15800235;28;20508;-53
2024/02/24 00:49:19;;;;;;;0.00;0.00;;;;;;;4.52;67.23;99486.66;15834882;28;20055;-47
2024/02/24 00:56:54;;;;;;;0.05;0.05;;;;;;;4.33;68.15;99485.59;15783777;28;20031;-54
2024/02/24 01:04:30;;;;;;;0.00;0.00;;;;;;;4.25;67.43;99483.94;15843416;28;20047;-49
2024/02/24 01:12:04;;;;;;;0.00;0.00;;;;;;;4.35;67.49;99478.25;15812801;28;20051;-48
2024/02/24 01:19:39;;;;;;;0.00;0.00;;;;;;;4.16;67.79;99468.41;15825103;28;20039;-48
2024/02/24 01:27:13;;;;;;;0.00;0.00;;;;;;;4.44;66.50;99471.72;15837480;28;20036;-53
2024/02/24 01:34:48;;;;;;;0.20;0.20;;;;;;;4.02;67.93;99464.88;15838833;28;20075;-48
2024/02/24 01:42:24;;;;;;;0.00;0.00;;;;;;;4.38;66.93;99471.72;15808869;28;20027;-51
2024/02/24 01:49:59;;;;;;;;;;;;;;;4.49;66.57;99474.59;15842808;28;20515;-48
2024/02/24 01:57:38;;;;;;;0.00;0.00;;;;;;;4.43;67.11;99472.75;15818544;28;19920;-48
2024/02/24 02:05:17;;;;;;;0.00;0.00;;;;;;;4.24;68.25;99468.19;15828460;28;20122;-47
2024/02/24 02:12:54;;;;;;;0.00;0.00;;;;;;;4.01;69.05;99457.91;15802177;28;20051;-48
2024/02/24 02:20:29;;;;;;;0.20;0.20;;;;;;;4.18;69.59;99475.13;15823433;28;20075;-48
2024/02/24 02:28:06;;;;;;;0.20;0.20;;;;;;;4.19;68.95;99473.28;15813355;28;20040;-49
2024/02/24 02:35:39;;;;;;;0.00;0.00;;;;;;;3.89;69.74;99470.13;15810239;28;20438;-51
2024/02/24 02:43:14;;;;;;;0.03;0.03;;;;;;;3.94;69.87;99471.19;15824797;28;20048;-48
2024/02/24 02:50:48;;;;;;;0.00;0.00;;;;;;;4.05;69.20;99467.13;15809429;28;20480;-50
2024/02/24 02:58:24;;;;;;;0.17;0.17;;;;;;;4.00;69.85;99473.03;15791260;28;20048;-48
2024/02/24 03:05:58;;;;;;;0.00;0.00;;;;;;;3.95;69.81;99479.94;15811967;28;20093;-51
2024/02/24 03:13:32;;;;;;;;;;;;;;;3.84;69.78;99484.00;15809909;28;20050;-50
2024/02/24 03:21:09;;;;;;;0.03;0.03;;;;;;;3.57;70.12;99470.59;15783856;28;19927;-53
2024/02/24 03:28:44;;;;;;;0.43;0.43;;;;;;;3.52;70.35;99467.72;15837823;28;20050;-48
2024/02/24 03:36:19;;;;;;;0.20;0.20;;;;;;;3.86;69.22;99476.66;15832123;28;20109;-48
2024/02/24 03:43:55;;;;;;;0.05;0.05;;;;;;;3.92;69.12;99478.53;15851374;28;20135;-49
2024/02/24 03:51:30;;;;;;;0.00;0.00;;;;;;;3.44;69.91;99483.78;15815944;28;20135;-51
2024/02/24 03:59:05;;;;;;;0.00;0.00;;;;;;;3.59;69.37;99486.34;15838170;28;20127;-51
2024/02/24 04:06:43;;;;;;;1.17;0.30;;;;;;;3.51;69.21;99489.13;15842103;28;20051;-48
2024/02/24 04:14:20;;;;;;;0.00;0.00;;;;;;;3.33;69.52;99500.25;15823702;28;20138;-51
2024/02/24 04:21:55;;;;;;;2.45;1.17;;;;;;;3.28;70.71;99502.66;15827245;28;20050;-51
2024/02/24 04:29:33;;;;;;;0.85;0.68;;;;;;;3.33;70.28;99501.06;15826558;28;20044;-50
2024/02/24 04:37:07;;;;;;;0.10;0.10;;;;;;;3.27;70.16;99501.84;15813928;28;20047;-51
2024/02/24 04:44:47;;;;;;;0.32;0.32;;;;;;;2.76;72.40;99510.00;15822979;28;20042;-51
2024/02/24 04:52:20;;;;;;;0.00;0.00;;;;;;;2.77;72.43;99469.22;15790815;28;20044;-52
2024/02/24 04:59:55;;;;;;;0.00;0.00;;;;;;;3.06;70.50;99510.63;15833204;28;20075;-48
2024/02/24 05:07:29;;;;;;;0.08;0.08;;;;;;;2.96;71.11;99519.94;15783067;28;20058;-50
2024/02/24 05:15:04;;;;;;;0.00;0.00;;;;;;;2.81;70.77;99527.97;15815950;28;20083;-51
2024/02/24 05:22:38;;;;;;;0.10;0.10;;;;;;;2.58;71.35;99545.88;15829217;28;20074;-50
2024/02/24 05:30:15;;;;;;;1.25;0.75;;;;;;;2.43;72.80;99545.91;15823020;28;20414;-50
2024/02/24 05:37:49;;;;;;;0.00;0.00;;;;;;;2.71;72.96;99540.72;15806651;28;20044;-50
2024/02/24 05:45:25;;;;;;;1.95;0.63;;;;;;;2.39;73.11;99529.56;15819952;28;20050;-49
2024/02/24 05:53:01;;;;;;;0.00;0.00;;;;;;;2.58;73.28;99540.56;15806668;28;20058;-49
2024/02/24 06:00:39;;;;;;;0.00;0.00;;;;;;;2.70;73.53;99550.47;15761490;28;20048;-51
2024/02/24 06:08:13;;;;;;;0.15;0.10;;;;;;;2.71;72.20;99559.25;15798366;28;20040;-49
2024/02/24 06:15:49;;;;;;;0.10;0.10;;;;;;;2.53;74.34;99564.97;15781305;28;20036;-50
2024/02/24 06:23:23;;;;;;;0.00;0.00;;;;;;;2.55;74.10;99570.88;15783608;28;20050;-49
2024/02/24 06:30:58;;;;;;;0.28;0.28;;;;;;;2.78;73.95;99573.38;15836879;28;20101;-51
2024/02/24 06:38:32;;;;;;;0.10;0.10;;;;;;;2.48;75.06;99554.94;15815610;28;20055;-50
2024/02/24 06:46:07;;;;;;;0.00;0.00;;;;;;;3.11;72.51;99576.34;15819617;28;20404;-50
2024/02/24 06:53:40;;;;;;;0.00;0.00;;;;;;;2.95;72.99;99590.69;15797414;28;20071;-50
2024/02/24 07:01:22;;;;;;;0.35;0.35;;;;;;;2.76;74.42;99578.88;15805872;28;20481;-51
2024/02/24 07:08:56;;;;;;;0.00;0.00;;;;;;;2.85;75.01;99605.25;15807814;28;20052;-53
2024/02/24 07:16:31;;;;;;;0.00;0.00;;;;;;;3.16;73.66;99623.50;15804865;28;20068;-50
2024/02/24 07:24:06;;;;;;;0.00;0.00;;;;;;;4.15;71.02;99621.59;15805867;28;20040;-51
2024/02/24 07:31:43;;;;;;;2.28;1.30;;;;;;;6.24;64.12;99627.63;15806747;28;20048;-50
2024/02/24 07:39:18;;;;;;;0.00;0.00;;;;;;;6.03;64.84;99634.06;15789699;28;20040;-51
2024/02/24 07:46:54;;;;;;;0.20;0.20;;;;;;;7.24;62.63;99627.19;15829781;28;20040;-51
2024/02/24 07:54:27;;;;;;;0.00;0.00;;;;;;;7.10;62.34;99642.47;15808341;28;20044;-51
2024/02/24 08:02:03;;;;;;;0.00;0.00;;;;;;;7.27;60.74;99648.09;15802293;28;20496;-51
2024/02/24 08:09:38;;;;;;;0.22;0.22;;;;;;;7.54;61.98;99654.06;15784429;28;20086;-51
2024/02/24 08:17:12;;;;;;;;;;;;;;;8.47;58.78;99645.22;15806190;28;20036;-51
2024/02/24 08:24:46;;;;;;;0.00;0.00;;;;;;;9.92;54.86;99655.69;15809313;28;20042;-50
2024/02/24 08:32:23;;;;;;;0.00;0.00;;;;;;;9.45;55.53;99661.81;15803788;28;20111;-49
2024/02/24 08:39:57;;;;;;;0.57;0.50;;;;;;;9.58;54.83;99671.50;15841042;28;20412;-50
2024/02/24 08:47:32;;;;;;;;;;;;;;;9.27;55.48;99680.63;15840632;28;20127;-50
2024/02/24 08:55:07;;;;;;;0.10;0.10;;;;;;;10.76;52.36;99685.75;15801947;28;19950;-50
2024/02/24 09:02:43;;;;;;;0.43;0.43;;;;;;;11.41;50.91;99692.63;15783655;28;20048;-51
2024/02/24 09:10:16;;;;;;;0.00;0.00;;;;;;;11.54;49.59;99700.41;15800950;28;20108;-50
2024/02/24 09:17:51;;;;;;;0.00;0.00;;;;;;;12.18;47.77;99698.25;15800267;28;20040;-51
2024/02/24 09:25:26;;;;;;;0.00;0.00;;;;;;;12.50;46.33;99709.22;15799995;28;20044;-52
2024/02/24 09:33:02;;;;;;;0.45;0.32;;;;;;;12.47;45.92;99722.34;15799025;28;20044;-49
2024/02/24 09:40:36;;;;;;;0.35;0.35;;;;;;;13.09;46.30;99719.38;15808704;28;20403;-53
2024/02/24 09:48:12;;;;;;;0.00;0.00;;;;;;;10.87;48.59;99743.97;15828134;28;20032;-51
2024/02/24 09:55:48;;;;;;;0.98;0.75;;;;;;;10.14;51.84;99747.94;15798896;28;20048;-51
2024/02/24 10:03:25;;;;;;;0.00;0.00;;;;;;;9.96;51.57;99746.16;15797760;28;20596;-51
2024/02/24 10:10:58;;;;;;;0.00;0.00;;;;;;;9.64;51.78;99745.59;15806315;22;20139;-50
2024/02/24 10:18:33;;;;;;;0.00;0.00;;;;;;;9.77;52.66;99751.81;15784954;28;20041;-50
2024/02/24 10:26:07;;;;;;;0.40;0.38;;;;;;;10.11;50.88;99761.78;15732865;28;20165;-50
2024/02/24 10:33:43;;;;;;;0.00;0.00;;;;;;;11.11;48.84;99765.41;15733114;28;20563;-54
2024/02/24 10:41:18;;;;;;;0.00;0.00;;;;;;;11.02;49.79;99773.00;15735879;28;20124;-52
2024/02/24 10:48:53;;;;;;;1.88;0.30;;;;;;;10.28;50.35;99788.78;15779378;28;20048;-49
2024/02/24 10:56:28;;;;;;;0.20;0.20;;;;;;;10.16;50.47;99786.03;15781188;28;20032;-51
2024/02/24 11:04:09;;;;;;;0.00;0.00;;;;;;;9.50;52.39;99796.91;15724347;28;20051;-52
2024/02/24 11:11:43;;;;;;;0.00;0.00;;;;;;;9.55;53.61;99789.84;15809620;28;20075;-52
2024/02/24 11:19:40;;;;;;;0.00;0.00;;;;;;;9.15;54.04;99816.31;15859359;28;20088;-49
2024/02/24 11:27:14;;;;;;;0.20;0.20;;;;;;;8.90;55.29;99829.72;15777950;28;20028;-50
2024/02/24 11:34:50;;;;;;;0.00;0.00;;;;;;;9.63;54.39;99827.03;15796063;28;20760;-52
2024/02/24 11:42:24;;;;;;;0.00;0.00;;;;;;;9.57;54.19;99827.94;15802716;28;20052;-50
2024/02/24 11:49:59;;;;;;;0.00;0.00;;;;;;;10.40;52.74;99827.19;15869117;28;20459;-51
2024/02/24 11:57:32;;;;;;;0.00;0.00;;;;;;;12.69;47.93;99838.97;15858369;28;20278;-51
2024/02/24 12:05:17;;;;;;;0.00;0.00;;;;;;;13.55;44.48;99794.56;15809445;28;20180;-53
2024/02/24 12:12:51;;;;;;;0.00;0.00;;;;;;;13.45;44.70;99836.53;15742829;28;20048;-52
2024/02/24 12:20:26;;;;;;;0.00;0.00;;;;;;;13.62;44.19;99838.34;15744231;28;20040;-53
2024/02/24 12:28:02;;;;;;;0.00;0.00;;;;;;;13.09;44.36;99834.41;15743680;28;20560;-50
2024/02/24 12:35:38;;;;;;;0.00;0.00;;;;;;;13.59;43.69;99838.84;15743471;28;20033;-51
2024/02/24 12:43:13;;;;;;;0.00;0.00;;;;;;;13.56;44.08;99834.75;15750280;28;20045;-51
2024/02/24 12:50:49;;;;;;;0.00;0.00;;;;;;;12.15;46.51;99852.06;15786197;28;20048;-51
2024/02/24 12:58:23;;;;;;;0.10;0.10;;;;;;;12.38;46.19;99843.03;15785464;28;20063;-50
2024/02/24 13:05:58;;;;;;;0.00;0.00;;;;;;;12.19;46.43;99838.97;15804543;28;20047;-49
2024/02/24 13:13:32;;;;;;;0.00;0.00;;;;;;;11.33;48.08;99847.00;15858565;28;20069;-50
2024/02/24 13:21:07;;;;;;;0.00;0.00;;;;;;;11.37;48.94;99858.06;15865826;28;20450;-47
2024/02/24 13:28:40;;;;;;;0.00;0.00;;;;;;;10.92;49.98;99869.44;15863595;28;20497;-48
2024/02/24 13:36:18;;;;;;;0.00;0.00;;;;;;;10.65;51.14;99853.78;15863348;28;20074;-50
2024/02/24 13:43:51;;;;;;;0.00;0.00;;;;;;;10.73;51.35;99861.50;15831802;28;20040;-47
2024/02/24 13:51:26;;;;;;;0.00;0.00;;;;;;;10.97;50.94;99874.94;15838890;28;20048;-47
2024/02/24 13:59:01;;;;;;;0.00;0.00;;;;;;;10.59;52.19;99876.19;15860477;28;20036;-51
2024/02/24 14:06:37;;;;;;;0.00;0.00;;;;;;;11.34;50.45;99882.72;15841672;28;20040;-47
2024/02/24 14:14:11;;;;;;;0.00;0.00;;;;;;;10.79;51.30;99891.97;15859249;28;20075;-50
2024/02/24 14:21:46;;;;;;;0.00;0.00;;;;;;;10.50;50.58;99907.09;15861160;28;20047;-47
2024/02/24 14:29:19;;;;;;;0.00;0.00;;;;;;;10.17;50.80;99905.69;15862058;28;20050;-49
2024/02/24 14:36:54;;;;;;;;;;;;;;;10.08;51.15;99908.91;15860714;28;20482;-47
2024/02/24 14:44:27;;;;;;;0.00;0.00;;;;;;;10.22;50.98;99926.47;15825442;28;19926;-45
2024/02/24 14:52:03;;;;;;;0.00;0.00;;;;;;;10.45;50.24;99915.84;15800908;28;20135;-50
2024/02/24 14:59:37;;;;;;;0.10;0.10;;;;;;;10.80;51.00;99928.50;15841585;28;20122;-46
2024/02/24 15:07:13;;;;;;;0.00;0.00;;;;;;;11.48;48.89;99922.53;15859260;28;20036;-49
2024/02/24 15:14:48;;;;;;;0.00;0.00;;;;;;;10.81;49.59;99932.00;15859472;28;20431;-47
2024/02/24 15:22:24;;;;;;;0.00;0.00;;;;;;;10.90;50.27;99944.03;15867540;28;20043;-50
2024/02/24 15:29:57;;;;;;;0.00;0.00;;;;;;;10.58;50.70;99944.31;15871465;28;20472;-48
2024/02/24 15:37:33;;;;;;;0.40;0.28;;;;;;;10.16;51.53;99944.25;15869691;28;20065;-46
2024/02/24 15:45:08;;;;;;;0.00;0.00;;;;;;;10.16;51.80;99951.50;15835411;28;20484;-47
2024/02/24 15:52:44;;;;;;;0.00;0.00;;;;;;;9.86;52.13;99967.56;15851156;28;20067;-51
2024/02/24 16:00:19;;;;;;;0.93;0.90;;;;;;;10.04;51.26;99951.44;15868922;28;20500;-46
2024/02/24 16:07:54;;;;;;;0.00;0.00;;;;;;;9.92;51.35;99964.78;15859847;22;20422;-50
2024/02/24 16:15:33;;;;;;;0.00;0.00;;;;;;;9.83;51.67;99979.53;15868755;28;20036;-48
2024/02/24 16:23:08;;;;;;;0.00;0.00;;;;;;;9.52;52.17;99980.50;15803723;28;20032;-53
2024/02/24 16:30:43;;;;;;;0.25;0.25;;;;;;;9.48;52.60;99978.50;15804317;28;20063;-48
2024/02/24 16:38:27;;;;;;;0.00;0.00;;;;;;;9.51;52.75;99989.56;15807252;28;20047;-51
2024/02/24 16:46:02;;;;;;;0.00;0.00;;;;;;;9.26;53.11;100000.31;15813197;28;20044;-48
2024/02/24 16:53:37;;;;;;;0.00;0.00;;;;;;;9.06;54.31;100029.13;15803491;28;20134;-51
2024/02/24 17:01:11;;;;;;;0.05;0.05;;;;;;;9.09;53.94;100039.38;15811727;28;20062;-48
2024/02/24 17:08:46;;;;;;;0.00;0.00;;;;;;;8.27;55.67;100049.09;15866883;28;20046;-50
2024/02/24 17:16:20;;;;;;;0.00;0.00;;;;;;;8.38;54.80;100072.53;15812319;28;20097;-47
2024/02/24 17:23:55;;;;;;;0.00;0.00;;;;;;;8.18;54.98;100078.72;15789082;28;20115;-48
2024/02/24 17:31:29;;;;;;;0.00;0.00;;;;;;;8.11;55.39;100098.47;15806951;28;20051;-56
2024/02/24 17:39:04;;;;;;;0.00;0.00;;;;;;;8.07;55.35;100108.81;15842963;28;20460;-53
2024/02/24 17:46:38;;;;;;;0.00;0.00;;;;;;;7.90;55.88;100129.78;15832751;28;20046;-50
2024/02/24 17:54:13;;;;;;;0.00;0.00;;;;;;;7.76;56.78;100138.03;15858684;28;20389;-50
2024/02/24 18:01:47;;;;;;;0.00;0.00;;;;;;;7.53;56.72;100152.59;15846345;28;20051;-48
2024/02/24 18:09:22;;;;;;;0.63;0.43;;;;;;;7.66;56.94;100157.97;15863323;28;20046;-52
2024/02/24 18:16:55;;;;;;;0.43;0.43;;;;;;;7.50;57.13;100157.53;15844695;28;20039;-49
2024/02/24 18:24:30;;;;;;;;;;;;;;;7.55;56.62;100161.22;15846230;28;20048;-52
2024/02/24 18:32:04;;;;;;;2.85;0.75;;;;;;;7.45;56.29;100171.50;15855882;28;19951;-51
2024/02/24 18:39:41;;;;;;;0.32;0.20;;;;;;;7.46;56.08;100178.50;15862201;28;20126;-48
2024/02/24 18:47:15;;;;;;;0.00;0.00;;;;;;;7.45;55.34;100184.03;15854511;28;20042;-51
2024/02/24 18:54:51;;;;;;;0.35;0.35;;;;;;;7.72;55.06;100187.53;15865901;28;20051;-49
2024/02/24 19:02:27;;;;;;;0.50;0.50;;;;;;;7.38;55.58;100186.69;15801087;28;20055;-50
2024/02/24 19:10:03;;;;;;;1.52;1.42;;;;;;;7.64;55.00;100192.03;15811834;28;20076;-49
2024/02/24 19:17:36;;;;;;;1.58;1.48;;;;;;;7.51;55.40;100191.25;15811255;28;20160;-52
2024/02/24 19:25:12;;;;;;;0.30;0.30;;;;;;;7.28;55.97;100189.75;15792873;28;20097;-50
2024/02/24 19:32:46;;;;;;;0.00;0.00;;;;;;;7.00;56.84;100208.56;15810235;28;20036;-48
2024/02/24 19:40:21;;;;;;;0.00;0.00;;;;;;;7.15;56.81;100208.41;15814143;28;20063;-52
2024/02/24 19:47:56;;;;;;;0.13;0.13;;;;;;;7.03;56.99;100210.00;15827978;28;20051;-48
2024/02/24 19:55:32;;;;;;;0.08;0.08;;;;;;;6.50;58.88;100225.75;15826607;28;20051;-47
2024/02/24 20:03:08;;;;;;;1.45;0.57;;;;;;;6.22;60.59;100209.78;15812304;28;20048;-50
2024/02/24 20:10:43;;;;;;;0.00;0.00;;;;;;;6.43;59.40;100208.88;15791877;28;20066;-52
2024/02/24 20:18:17;;;;;;;0.00;0.00;;;;;;;6.09;60.75;100214.00;15809237;28;20054;-48
2024/02/24 20:25:57;;;;;;;0.17;0.17;;;;;;;6.31;60.67;100214.78;15809261;28;20032;-49
2024/02/24 20:33:33;;;;;;;0.10;0.10;;;;;;;6.08;61.12;100233.69;15807127;28;20122;-51
2024/02/24 20:41:10;;;;;;;0.00;0.00;;;;;;;5.69;63.08;100239.47;15804639;28;20115;-51
2024/02/24 20:48:44;;;;;;;0.10;0.10;;;;;;;5.87;62.45;100234.53;15804173;28;20036;-47
2024/02/24 20:56:20;;;;;;;2.22;1.70;;;;;;;5.91;62.27;100239.44;15805138;28;20040;-46
2024/02/24 21:03:55;;;;;;;1.42;0.82;;;;;;;5.97;62.72;100234.22;15802712;28;20032;-49
2024/02/24 21:11:32;;;;;;;0.10;0.10;;;;;;;5.95;62.58;100240.75;15802751;28;20040;-49
2024/02/24 21:19:07;;;;;;;0.25;0.25;;;;;;;5.85;63.08;100246.38;15794553;28;20135;-47
2024/02/24 21:26:43;;;;;;;0.00;0.00;;;;;;;5.59;63.75;100242.44;15802419;28;20028;-50
2024/02/24 21:34:18;;;;;;;0.20;0.20;;;;;;;5.67;64.14;100236.16;15801562;28;20063;-50
2024/02/24 21:41:53;;;;;;;0.55;0.55;;;;;;;5.34;65.11;100233.16;15801333;28;20031;-52
2024/02/24 21:49:26;;;;;;;0.25;0.20;;;;;;;4.65;67.93;100238.06;15799805;28;20552;-49
2024/02/24 21:57:04;;;;;;;0.00;0.00;;;;;;;5.22;65.58;100237.31;15783319;28;20036;-48
2024/02/24 22:04:38;;;;;;;0.00;0.00;;;;;;;5.79;63.98;100231.97;15782042;28;20040;-48
2024/02/24 22:12:15;;;;;;;0.00;0.00;;;;;;;5.42;64.40;100229.56;15833850;22;20043;-47
2024/02/24 22:19:48;;;;;;;0.00;0.00;;;;;;;5.66;63.25;100237.19;15807404;28;20072;-47
2024/02/24 22:27:23;;;;;;;0.43;0.43;;;;;;;5.28;64.29;100237.41;15778965;28;20449;-53
2024/02/24 22:34:57;;;;;;;0.10;0.10;;;;;;;5.36;64.58;100236.44;15778967;28;20039;-48
2024/02/24 22:42:33;;;;;;;;;;;;;;;4.93;65.48;100244.34;15762742;28;20397;-52
2024/02/24 22:50:08;;;;;;;0.10;0.10;;;;;;;5.38;63.69;100243.25;15808319;28;19965;-50
2024/02/24 22:57:44;;;;;;;0.00;0.00;;;;;;;5.11;64.41;100260.75;15840977;28;20088;-50
2024/02/24 23:05:17;;;;;;;0.55;0.38;;;;;;;4.79;65.29;100263.81;15809054;28;20130;-50
2024/02/24 23:12:53;;;;;;;0.00;0.00;;;;;;;4.63;65.67;100282.63;15796705;28;20052;-48
2024/02/24 23:20:31;;;;;;;1.55;1.42;;;;;;;4.89;64.24;100293.59;15796230;28;20117;-47
2024/02/24 23:28:08;;;;;;;0.00;0.00;;;;;;;4.86;63.76;100286.84;15816181;28;20131;-49
2024/02/24 23:35:41;;;;;;;0.00;0.00;;;;;;;4.81;64.32;100280.41;15817906;28;20127;-47
2024/02/24 23:43:16;;;;;;;0.10;0.10;;;;;;;4.99;63.35;100278.22;15784058;28;20416;-46
2024/02/24 23:50:50;;;;;;;0.10;0.10;;;;;;;5.05;62.73;100295.25;15861805;28;20127;-47
2024/02/24 23:58:28;;;;;;;0.00;0.00;;;;;;;5.04;63.17;100310.38;15870847;28;20035;-49
